Time;durP1;ratioP1;P1;durP2;ratioP2;P2;SDS_P1;SDS_P2;PMS_P1;PMS_P2;Temp;Humidity;BMP_temperature;BMP_pressure;BME280_temperature;BME280_humidity;BME280_pressure;Samples;Min_cycle;Max_cycle;Signal;HPM_P1;HPM_P2
2022/06/22 00:01:40;;;;;;;0.40;0.20;;;;;;;17.88;81.24;99742.97;4990621;28;20453;-49
2022/06/22 00:04:17;;;;;;;0.40;0.20;;;;;;;17.49;81.83;99744.63;4985283;28;20449;-49
2022/06/22 00:06:50;;;;;;;0.40;0.30;;;;;;;17.55;82.05;99740.69;4983233;28;20469;-49
2022/06/22 00:09:34;;;;;;;0.40;0.20;;;;;;;17.40;82.58;99740.69;4988535;28;20507;-49
2022/06/22 00:12:02;;;;;;;0.40;0.20;;;;;;;17.62;81.54;99747.38;4977111;28;20500;-48
2022/06/22 00:14:50;;;;;;;0.40;0.20;;;;;;;17.25;83.16;99748.91;4989655;28;20469;-48
2022/06/22 00:17:24;;;;;;;0.40;0.20;;;;;;;17.00;83.82;99737.06;4987040;28;20445;-49
2022/06/22 00:19:58;;;;;;;0.40;0.20;;;;;;;16.90;84.60;99740.44;4979223;28;20442;-48
2022/06/22 00:22:25;;;;;;;0.40;0.20;;;;;;;16.94;84.47;99732.09;4988998;28;20453;-48
2022/06/22 00:25:13;;;;;;;0.77;0.77;;;;;;;16.84;84.99;99728.25;4983025;28;20476;-48
2022/06/22 00:27:39;;;;;;;0.40;0.20;;;;;;;16.78;85.36;99724.13;4983111;28;20454;-49
2022/06/22 00:30:09;;;;;;;0.40;0.20;;;;;;;16.36;87.30;99722.28;4986893;28;20489;-48
2022/06/22 00:32:36;;;;;;;0.40;0.20;;;;;;;16.55;87.81;99714.81;4989392;28;20842;-47
2022/06/22 00:35:53;;;;;;;0.40;0.20;;;;;;;16.72;86.85;99711.13;4986019;28;21010;-47
2022/06/22 00:38:26;;;;;;;0.40;0.20;;;;;;;16.75;86.66;99718.97;4966296;28;20842;-48
2022/06/22 00:40:57;;;;;;;0.40;0.20;;;;;;;16.74;86.65;99719.06;4982793;28;20491;-48
2022/06/22 00:43:32;;;;;;;0.40;0.20;;;;;;;16.84;86.12;99718.38;4983577;28;20875;-48
2022/06/22 00:46:00;;;;;;;0.40;0.20;;;;;;;16.95;85.36;99717.69;4976336;28;20469;-48
2022/06/22 00:48:35;;;;;;;0.40;0.20;;;;;;;16.93;84.14;99705.34;4989079;28;20449;-48
2022/06/22 00:51:06;;;;;;;0.40;0.20;;;;;;;16.82;85.60;99709.56;4982384;28;20489;-48
2022/06/22 00:53:36;;;;;;;0.40;0.20;;;;;;;16.97;84.84;99707.72;4989189;28;20510;-49
2022/06/22 00:56:29;;;;;;;0.40;0.20;;;;;;;16.70;86.24;99704.97;4986179;28;20503;-48
2022/06/22 00:59:17;;;;;;;0.40;0.20;;;;;;;16.57;86.16;99704.84;4988372;28;20982;-49
2022/06/22 01:01:54;;;;;;;0.40;0.20;;;;;;;16.27;87.66;99699.56;4992143;28;20504;-49
2022/06/22 01:04:39;;;;;;;0.40;0.20;;;;;;;16.36;87.42;99694.59;4994247;28;21004;-47
2022/06/22 01:07:15;;;;;;;0.40;0.30;;;;;;;16.37;87.09;99696.31;5002686;28;21013;-49
2022/06/22 01:09:54;;;;;;;0.40;0.20;;;;;;;16.41;86.95;99689.78;4988276;28;21028;-49
2022/06/22 01:12:31;;;;;;;0.40;0.20;;;;;;;16.45;87.15;99691.34;4983892;28;20570;-49
2022/06/22 01:15:03;;;;;;;0.40;0.20;;;;;;;16.39;87.34;99692.56;4982129;28;20469;-49
2022/06/22 01:17:54;;;;;;;0.40;0.20;;;;;;;16.17;88.40;99694.84;4989003;28;20989;-49
2022/06/22 01:20:25;;;;;;;0.40;0.20;;;;;;;16.14;89.04;99700.41;4975432;28;20497;-49
2022/06/22 01:23:13;;;;;;;0.40;0.20;;;;;;;16.16;89.70;99703.84;4988724;28;20446;-48
2022/06/22 01:25:55;;;;;;;0.40;0.20;;;;;;;16.09;89.57;99697.16;4988762;28;20846;-49
2022/06/22 01:28:24;;;;;;;0.40;0.20;;;;;;;16.27;88.95;99704.91;4975512;28;20865;-48
2022/06/22 01:31:01;;;;;;;0.40;0.20;;;;;;;15.85;89.70;99694.13;4988680;28;20916;-48
2022/06/22 01:33:35;;;;;;;0.40;0.20;;;;;;;15.59;91.22;99685.81;4985913;28;20492;-48
2022/06/22 01:36:13;;;;;;;0.40;0.20;;;;;;;15.72;91.00;99682.41;4986132;28;20466;-48
2022/06/22 01:38:40;;;;;;;0.50;0.40;;;;;;;15.82;90.59;99684.44;4988207;28;20449;-48
2022/06/22 01:41:26;;;;;;;0.40;0.20;;;;;;;15.99;89.68;99675.38;4981529;28;20868;-49
2022/06/22 01:44:07;;;;;;;0.40;0.20;;;;;;;15.99;90.18;99664.66;4982166;28;20833;-48
2022/06/22 01:46:39;;;;;;;0.40;0.20;;;;;;;16.02;90.18;99661.78;4984115;28;20470;-49
2022/06/22 01:49:31;;;;;;;0.40;0.20;;;;;;;15.84;91.07;99653.06;4988476;28;20446;-49
2022/06/22 01:52:05;;;;;;;0.40;0.20;;;;;;;15.82;91.54;99656.78;4976237;28;20910;-49
2022/06/22 01:54:38;;;;;;;0.50;0.40;;;;;;;15.93;91.22;99652.50;4985522;28;20454;-49
2022/06/22 01:57:22;;;;;;;0.40;0.20;;;;;;;16.13;90.36;99659.31;4988326;28;20485;-48
2022/06/22 02:00:05;;;;;;;0.40;0.20;;;;;;;16.28;89.78;99665.56;4987845;28;20528;-49
2022/06/22 02:02:42;;;;;;;0.40;0.20;;;;;;;16.03;90.76;99671.56;4975161;28;20521;-49
2022/06/22 02:05:32;;;;;;;0.40;0.20;;;;;;;16.10;90.37;99674.75;4988110;28;20498;-48
2022/06/22 02:08:20;;;;;;;0.40;0.20;;;;;;;16.27;89.69;99675.41;5002544;28;20450;-49
2022/06/22 02:11:15;;;;;;;0.40;0.20;;;;;;;16.15;89.20;99672.63;4999938;28;20527;-49
2022/06/22 02:13:52;;;;;;;0.40;0.20;;;;;;;15.96;90.68;99662.19;4978535;28;20458;-49
2022/06/22 02:16:21;;;;;;;0.40;0.20;;;;;;;16.42;89.52;99652.13;4984468;28;20734;-48
2022/06/22 02:18:51;;;;;;;0.40;0.20;;;;;;;16.24;89.78;99654.16;4981242;28;21002;-49
2022/06/22 02:21:22;;;;;;;0.40;0.20;;;;;;;16.33;89.49;99652.75;4987300;28;20823;-48
2022/06/22 02:24:01;;;;;;;0.50;0.50;;;;;;;16.07;90.36;99650.81;4985705;28;20943;-50
2022/06/22 02:26:34;;;;;;;0.40;0.20;;;;;;;15.89;91.76;99653.63;4975321;28;20450;-79
2022/06/22 02:29:01;;;;;;;0.40;0.20;;;;;;;15.35;94.09;99655.06;4967707;28;20475;-79
2022/06/22 02:31:28;;;;;;;0.40;0.20;;;;;;;15.39;94.28;99643.25;4984491;28;20522;-80
2022/06/22 02:33:57;;;;;;;0.40;0.20;;;;;;;15.70;93.01;99653.88;4994321;28;20534;-79
2022/06/22 02:36:28;;;;;;;0.40;0.20;;;;;;;15.78;92.50;99656.13;5006541;28;20451;-80
2022/06/22 02:38:58;;;;;;;0.40;0.20;;;;;;;15.73;91.84;99627.84;4980042;28;20446;-80
2022/06/22 02:44:31;;;;;;;0.40;0.20;;;;;;;15.91;91.88;99643.72;4979658;28;20486;-79
2022/06/22 02:47:23;;;;;;;0.40;0.20;;;;;;;15.65;92.85;99639.06;4993657;28;20450;-80
2022/06/22 02:50:01;;;;;;;0.40;0.20;;;;;;;15.78;92.98;99644.53;4993220;28;20502;-80
2022/06/22 02:52:43;;;;;;;0.40;0.20;;;;;;;15.73;93.11;99651.97;4996252;28;20447;-82
2022/06/22 02:55:13;;;;;;;0.40;0.20;;;;;;;15.98;92.20;99652.22;4970531;28;20467;-80
2022/06/22 02:57:50;;;;;;;0.40;0.20;;;;;;;15.95;92.51;99652.41;5000566;28;20452;-80
2022/06/22 03:00:23;;;;;;;0.40;0.20;;;;;;;15.85;92.30;99648.56;4971598;28;20498;-80
2022/06/22 03:03:06;;;;;;;0.40;0.20;;;;;;;15.79;92.32;99643.59;4984759;28;20446;-80
2022/06/22 03:05:35;;;;;;;0.40;0.20;;;;;;;15.87;92.20;99654.69;4978178;28;20499;-80
2022/06/22 03:08:03;;;;;;;0.40;0.20;;;;;;;15.85;92.06;99637.84;5008686;28;20517;-80
2022/06/22 03:10:45;;;;;;;0.40;0.20;;;;;;;15.84;92.03;99653.06;4988119;28;20991;-80
2022/06/22 03:13:17;;;;;;;0.40;0.20;;;;;;;15.46;93.91;99633.00;5008245;28;20493;-80
2022/06/22 03:15:45;;;;;;;0.40;0.20;;;;;;;15.56;93.98;99651.13;4977449;28;20856;-80
2022/06/22 03:18:18;;;;;;;0.40;0.20;;;;;;;15.73;93.24;99647.47;4983800;28;20450;-80
2022/06/22 03:20:53;;;;;;;0.40;0.20;;;;;;;15.66;94.06;99647.00;4991910;28;20501;-79
2022/06/22 03:23:34;;;;;;;0.40;0.20;;;;;;;15.81;93.27;99650.56;4977342;28;20469;-79
2022/06/22 03:26:18;;;;;;;0.40;0.20;;;;;;;15.72;93.87;99663.66;4989593;28;21087;-80
2022/06/22 03:28:55;;;;;;;0.40;0.20;;;;;;;15.79;93.29;99656.97;4977801;28;20928;-79
2022/06/22 03:31:32;;;;;;;0.40;0.20;;;;;;;15.89;92.72;99663.50;4974484;28;20487;-83
2022/06/22 03:34:09;;;;;;;0.40;0.20;;;;;;;16.10;91.59;99680.97;4975253;28;20489;-82
2022/06/22 03:36:45;;;;;;;0.40;0.20;;;;;;;15.79;92.75;99675.75;5001514;28;20442;-82
2022/06/22 03:39:16;;;;;;;0.40;0.20;;;;;;;15.75;93.31;99683.06;4982257;28;20451;-82
2022/06/22 03:41:48;;;;;;;0.40;0.20;;;;;;;15.72;93.53;99693.13;4981608;28;20462;-82
2022/06/22 03:44:27;;;;;;;0.40;0.20;;;;;;;15.80;93.24;99701.59;4981761;28;20486;-82
2022/06/22 03:47:00;;;;;;;3.43;0.90;;;;;;;15.75;93.73;99690.25;4981411;28;20462;-82
2022/06/22 03:49:36;;;;;;;0.40;0.20;;;;;;;15.91;93.02;99685.72;4988532;28;20438;-82
2022/06/22 03:52:29;;;;;;;0.40;0.20;;;;;;;15.90;92.92;99689.38;4996783;28;20493;-82
2022/06/22 03:55:06;;;;;;;0.40;0.20;;;;;;;16.00;92.74;99683.34;4989612;28;20471;-82
2022/06/22 03:57:36;;;;;;;0.40;0.20;;;;;;;16.12;92.07;99686.22;5000652;28;20457;-82
2022/06/22 04:00:06;;;;;;;0.40;0.20;;;;;;;16.26;91.17;99683.56;4982547;28;20533;-82
2022/06/22 04:02:33;;;;;;;0.40;0.20;;;;;;;16.20;91.60;99694.69;4982414;28;20446;-82
2022/06/22 04:05:01;;;;;;;0.40;0.20;;;;;;;16.30;91.73;99691.31;5000650;28;20475;-82
2022/06/22 04:07:37;;;;;;;0.40;0.20;;;;;;;16.19;91.99;99704.56;4997518;28;20493;-82
2022/06/22 04:10:07;;;;;;;0.40;0.20;;;;;;;16.20;91.84;99700.91;5002267;28;20446;-82
2022/06/22 04:12:39;;;;;;;0.40;0.20;;;;;;;16.49;90.82;99696.41;4996985;28;20486;-83
2022/06/22 04:15:15;;;;;;;0.40;0.20;;;;;;;16.36;91.78;99691.91;4982554;28;20474;-84
2022/06/22 04:17:56;;;;;;;0.40;0.20;;;;;;;16.61;90.49;99684.06;4975390;28;20443;-82
2022/06/22 04:20:25;;;;;;;0.40;0.20;;;;;;;16.35;91.60;99693.75;4980019;28;20486;-83
2022/06/22 04:22:56;;;;;;;0.40;0.20;;;;;;;16.28;91.92;99685.19;5004701;28;20456;-82
2022/06/22 04:25:37;;;;;;;0.40;0.20;;;;;;;16.28;91.76;99693.22;4995561;28;20970;-83
2022/06/22 04:28:08;;;;;;;0.80;0.80;;;;;;;16.34;92.22;99696.50;5010046;28;20442;-82
2022/06/22 04:30:43;;;;;;;0.40;0.20;;;;;;;16.85;90.24;99693.25;4988285;28;20486;-82
2022/06/22 04:33:20;;;;;;;0.40;0.20;;;;;;;17.13;87.40;99711.16;4990692;28;20458;-82
2022/06/22 04:35:55;;;;;;;0.40;0.20;;;;;;;17.08;88.13;99715.94;5006991;28;20439;-83
2022/06/22 04:38:38;;;;;;;0.40;0.20;;;;;;;17.26;87.40;99719.25;4988560;28;20443;-82
2022/06/22 04:41:38;;;;;;;0.40;0.20;;;;;;;17.33;86.91;99736.72;4965710;28;20450;-82
2022/06/22 04:44:14;;;;;;;0.40;0.20;;;;;;;17.41;86.55;99731.72;5005596;28;20501;-82
2022/06/22 04:46:44;;;;;;;0.40;0.20;;;;;;;17.47;86.53;99728.59;4978755;28;20470;-83
2022/06/22 04:49:26;;;;;;;0.40;0.20;;;;;;;17.44;86.53;99710.00;4991124;28;20485;-82
2022/06/22 04:52:07;;;;;;;0.40;0.20;;;;;;;17.47;87.25;99706.25;5013877;28;20545;-81
2022/06/22 04:54:40;;;;;;;0.40;0.20;;;;;;;17.31;88.19;99698.34;4985349;28;20526;-82
2022/06/22 04:57:38;;;;;;;0.40;0.20;;;;;;;17.37;88.33;99710.50;4996464;28;20458;-83
2022/06/22 05:00:11;;;;;;;0.40;0.20;;;;;;;17.40;88.13;99715.66;4996583;28;20454;-82
2022/06/22 05:02:40;;;;;;;0.40;0.20;;;;;;;17.57;87.88;99722.63;4982788;28;20880;-82
2022/06/22 05:05:20;;;;;;;0.40;0.20;;;;;;;17.45;88.36;99716.25;5000661;28;20475;-82
2022/06/22 05:08:05;;;;;;;0.40;0.20;;;;;;;17.67;88.80;99737.16;4982147;28;20454;-82
2022/06/22 05:10:51;;;;;;;0.40;0.20;;;;;;;17.80;87.83;99732.72;4995607;28;21006;-82
2022/06/22 05:13:31;;;;;;;0.40;0.20;;;;;;;17.88;87.29;99725.00;4980801;28;20528;-82
2022/06/22 05:16:01;;;;;;;0.40;0.20;;;;;;;18.17;86.50;99730.22;4996841;28;20454;-82
2022/06/22 05:18:32;;;;;;;0.40;0.20;;;;;;;18.15;84.78;99732.16;4995424;28;21033;-82
2022/06/22 05:21:16;;;;;;;0.40;0.20;;;;;;;18.34;83.68;99719.16;4996374;28;20447;-82
2022/06/22 05:23:48;;;;;;;0.40;0.20;;;;;;;18.50;82.85;99735.06;4982311;28;20552;-82
2022/06/22 05:26:18;;;;;;;0.40;0.20;;;;;;;18.67;82.82;99748.28;4981386;28;20462;-82
2022/06/22 05:28:59;;;;;;;0.40;0.20;;;;;;;18.62;83.58;99740.47;5001631;28;20530;-82
2022/06/22 05:31:35;;;;;;;0.40;0.20;;;;;;;18.67;83.98;99742.03;4953267;28;21077;-81
2022/06/22 05:34:06;;;;;;;0.40;0.20;;;;;;;18.74;81.75;99746.00;4980747;28;20473;-81
2022/06/22 05:36:40;;;;;;;0.40;0.20;;;;;;;18.45;81.89;99732.72;4995632;28;20493;-82
2022/06/22 05:39:07;;;;;;;0.50;0.40;;;;;;;18.48;82.13;99737.03;4980662;28;20505;-82
2022/06/22 05:41:39;;;;;;;0.40;0.20;;;;;;;18.78;81.17;99724.13;4970966;28;20444;-82
2022/06/22 05:44:11;;;;;;;0.40;0.20;;;;;;;18.80;80.95;99734.78;4993740;28;20521;-82
2022/06/22 05:46:40;;;;;;;0.40;0.20;;;;;;;19.00;80.27;99736.03;4982804;28;20858;-82
2022/06/22 05:49:35;;;;;;;0.40;0.20;;;;;;;19.00;80.62;99736.03;4998264;28;20463;-83
2022/06/22 05:52:11;;;;;;;0.40;0.20;;;;;;;19.22;80.00;99730.81;4996904;28;20507;-82
2022/06/22 05:54:44;;;;;;;0.40;0.20;;;;;;;19.37;80.25;99750.41;4972930;28;20554;-82
2022/06/22 05:57:36;;;;;;;0.40;0.20;;;;;;;19.43;79.37;99734.63;4976812;28;20929;-82
2022/06/22 06:00:13;;;;;;;0.40;0.20;;;;;;;19.79;78.07;99738.28;4992803;28;20461;-82
2022/06/22 06:02:50;;;;;;;0.40;0.20;;;;;;;20.45;75.83;99738.66;4996903;28;20458;-82
2022/06/22 06:05:26;;;;;;;0.50;0.40;;;;;;;20.70;75.29;99739.31;5013586;28;21031;-82
2022/06/22 06:07:59;;;;;;;0.40;0.20;;;;;;;21.23;73.07;99736.78;4970758;28;20467;-82
2022/06/22 06:10:34;;;;;;;0.40;0.20;;;;;;;21.27;72.07;99730.22;4977979;28;20446;-82
2022/06/22 06:13:04;;;;;;;0.40;0.20;;;;;;;21.79;69.36;99741.22;4996595;28;20494;-82
2022/06/22 06:15:35;;;;;;;0.40;0.20;;;;;;;21.83;69.11;99713.81;5012895;28;20502;-82
2022/06/22 06:18:04;;;;;;;0.40;0.20;;;;;;;22.25;66.77;99740.09;4997394;28;20487;-83
2022/06/22 06:20:39;;;;;;;0.40;0.20;;;;;;;22.23;66.58;99748.34;4987408;28;20501;-83
2022/06/22 06:23:30;;;;;;;0.40;0.20;;;;;;;22.58;66.27;99750.72;4976834;28;20436;-82
2022/06/22 06:28:52;;;;;;;0.40;0.20;;;;;;;23.05;63.50;99751.13;4980063;28;20442;-83
2022/06/22 06:31:29;;;;;;;0.70;0.70;;;;;;;23.32;62.36;99755.94;5011679;28;20495;-83
2022/06/22 06:33:58;;;;;;;0.40;0.20;;;;;;;23.51;60.40;99755.13;4972579;28;20471;-83
2022/06/22 06:36:29;;;;;;;0.40;0.30;;;;;;;23.56;59.79;99752.84;4993517;28;20466;-82
2022/06/22 06:39:02;;;;;;;0.40;0.20;;;;;;;23.75;59.95;99760.22;5004057;28;20446;-82
2022/06/22 06:41:38;;;;;;;0.40;0.20;;;;;;;23.24;59.99;99764.75;4972396;28;20432;-83
2022/06/22 06:44:17;;;;;;;0.50;0.20;;;;;;;23.71;58.33;99758.75;4978090;28;20488;-83
2022/06/22 06:46:49;;;;;;;0.40;0.20;;;;;;;23.78;58.59;99759.91;4981438;28;20450;-83
2022/06/22 06:49:55;;;;;;;0.40;0.20;;;;;;;23.61;59.50;99756.03;4992890;28;20462;-83
2022/06/22 06:52:26;;;;;;;0.40;0.20;;;;;;;23.90;58.61;99746.06;4981426;28;20861;-83
2022/06/22 06:55:01;;;;;;;0.40;0.20;;;;;;;24.13;58.37;99740.38;4970813;28;20476;-83
2022/06/22 06:57:29;;;;;;;0.40;0.20;;;;;;;24.40;58.28;99729.63;4968160;28;20465;-83
2022/06/22 07:00:00;;;;;;;0.40;0.20;;;;;;;24.05;58.66;99719.34;4993283;28;20454;-84
2022/06/22 07:02:32;;;;;;;0.40;0.20;;;;;;;24.03;59.02;99691.47;4994303;28;20461;-83
2022/06/22 07:05:01;;;;;;;0.40;0.20;;;;;;;24.37;58.79;99694.59;4977840;28;20503;-84
2022/06/22 07:07:43;;;;;;;0.60;0.60;;;;;;;24.02;60.16;99702.50;4960581;28;20860;-83
2022/06/22 07:10:23;;;;;;;0.50;0.30;;;;;;;24.73;58.59;99700.22;4967413;28;20953;-83
2022/06/22 07:13:00;;;;;;;0.40;0.20;;;;;;;24.98;56.93;99693.25;4966288;28;20502;-83
2022/06/22 07:15:35;;;;;;;0.50;0.50;;;;;;;24.78;56.60;99681.56;4962786;28;20463;-84
2022/06/22 07:18:18;;;;;;;0.40;0.20;;;;;;;24.34;58.73;99697.59;4976663;28;20447;-83
2022/06/22 07:20:48;;;;;;;0.40;0.20;;;;;;;24.56;57.54;99692.84;4988292;28;20450;-84
2022/06/22 07:23:22;;;;;;;0.40;0.20;;;;;;;24.66;57.18;99693.63;4999713;28;20498;-83
2022/06/22 07:26:15;;;;;;;0.40;0.30;;;;;;;24.86;57.72;99687.13;4998689;28;20494;-84
2022/06/22 07:28:48;;;;;;;0.40;0.20;;;;;;;24.87;57.95;99691.56;5013946;28;20471;-84
2022/06/22 07:31:36;;;;;;;0.40;0.30;;;;;;;24.84;56.95;99694.59;4994288;28;20451;-83
2022/06/22 07:34:06;;;;;;;0.40;0.23;;;;;;;24.81;57.02;99694.91;4993488;28;20489;-84
2022/06/22 07:36:42;;;;;;;0.40;0.30;;;;;;;24.59;58.28;99692.53;4983219;28;20467;-83
2022/06/22 07:39:19;;;;;;;0.50;0.30;;;;;;;24.81;57.81;99694.91;4984896;28;21002;-84
2022/06/22 07:41:51;;;;;;;0.40;0.20;;;;;;;24.58;57.64;99701.69;5000881;28;20435;-84
2022/06/22 07:44:22;;;;;;;0.40;0.30;;;;;;;24.51;57.05;99696.84;4999997;28;20482;-84
2022/06/22 07:47:10;;;;;;;0.40;0.30;;;;;;;24.91;56.17;99706.56;5004941;28;20440;-84
2022/06/22 07:50:01;;;;;;;0.40;0.20;;;;;;;25.76;54.36;99708.13;5007292;28;20454;-83
2022/06/22 07:52:44;;;;;;;0.40;0.20;;;;;;;26.14;51.88;99708.81;5007541;28;20487;-84
2022/06/22 07:55:36;;;;;;;0.40;0.20;;;;;;;25.98;52.91;99725.88;4994426;28;20449;-84
2022/06/22 07:58:31;;;;;;;0.40;0.20;;;;;;;25.91;54.02;99720.22;4979126;28;20459;-84
2022/06/22 08:01:04;;;;;;;0.40;0.30;;;;;;;25.82;51.99;99721.13;4985551;28;20479;-83
2022/06/22 08:03:42;;;;;;;0.40;0.20;;;;;;;25.92;52.77;99716.47;4986931;28;20517;-84
2022/06/22 08:06:14;;;;;;;0.40;0.20;;;;;;;25.79;53.46;99718.72;4990211;28;20471;-84
2022/06/22 08:08:55;;;;;;;0.40;0.20;;;;;;;26.07;51.88;99700.41;4994147;28;20485;-84
2022/06/22 08:11:36;;;;;;;0.40;0.20;;;;;;;25.74;52.60;99698.41;5004911;28;20509;-83
2022/06/22 08:14:12;;;;;;;0.40;0.20;;;;;;;25.72;52.45;99705.88;5032882;23;20953;-53
2022/06/22 08:16:44;;;;;;;0.40;0.20;;;;;;;26.21;52.46;99708.03;5033840;28;20448;-55
2022/06/22 08:19:11;;;;;;;0.40;0.20;;;;;;;26.19;51.23;99707.34;5028322;28;21004;-55
2022/06/22 08:21:44;;;;;;;0.50;0.50;;;;;;;26.20;50.49;99713.63;5035602;28;20422;-56
2022/06/22 08:24:14;;;;;;;0.43;0.20;;;;;;;26.14;49.77;99709.66;5035418;28;20744;-55
2022/06/22 08:26:44;;;;;;;0.40;0.20;;;;;;;26.57;48.71;99711.53;5035961;28;20447;-56
2022/06/22 08:29:13;;;;;;;0.40;0.20;;;;;;;26.40;48.67;99709.72;5067064;28;20426;-56
2022/06/22 08:31:49;;;;;;;0.40;0.20;;;;;;;26.41;49.16;99705.97;5035172;28;20617;-56
2022/06/22 08:34:42;;;;;;;1.53;1.30;;;;;;;26.10;48.40;99712.88;5034745;28;20470;-56
2022/06/22 08:37:17;;;;;;;0.40;0.20;;;;;;;26.43;48.36;99717.56;5035086;28;20920;-56
2022/06/22 08:39:52;;;;;;;0.43;0.27;;;;;;;26.79;48.92;99710.16;5035134;28;20443;-55
2022/06/22 08:42:34;;;;;;;0.40;0.30;;;;;;;26.83;48.82;99697.88;5034913;28;20761;-56
2022/06/22 08:45:42;;;;;;;0.40;0.20;;;;;;;27.01;46.90;99705.19;5035168;28;20467;-56
2022/06/22 08:48:11;;;;;;;0.40;0.20;;;;;;;26.66;42.78;99704.28;5013041;28;20448;-55
2022/06/22 08:51:12;;;;;;;0.40;0.30;;;;;;;26.75;43.26;99705.19;5012678;28;20420;-56
2022/06/22 08:53:41;;;;;;;0.40;0.30;;;;;;;26.84;44.18;99696.00;5028352;28;20501;-56
2022/06/22 08:56:22;;;;;;;0.40;0.30;;;;;;;26.98;43.82;99706.31;5034906;28;20441;-56
2022/06/22 08:59:15;;;;;;;0.40;0.20;;;;;;;26.74;43.77;99703.50;5034704;28;20448;-55
2022/06/22 09:02:09;;;;;;;0.40;0.20;;;;;;;26.73;44.15;99697.19;5025834;28;20456;-56
2022/06/22 09:04:54;;;;;;;0.40;0.20;;;;;;;26.51;44.20;99705.88;5034545;28;20446;-56
2022/06/22 09:07:29;;;;;;;0.40;0.20;;;;;;;26.72;44.31;99698.16;5034573;28;20444;-57
2022/06/22 09:10:11;;;;;;;0.40;0.30;;;;;;;26.93;43.80;99700.50;5034367;28;20933;-56
2022/06/22 09:13:20;;;;;;;0.40;0.20;;;;;;;26.69;43.40;99695.75;5034519;28;20491;-53
2022/06/22 09:16:01;;;;;;;0.40;0.20;;;;;;;26.95;43.56;99692.16;5026156;28;20471;-55
2022/06/22 09:18:44;;;;;;;0.40;0.20;;;;;;;27.08;42.83;99693.44;5029269;28;20458;-55
2022/06/22 09:21:49;;;;;;;0.40;0.20;;;;;;;26.88;43.35;99696.56;5033106;28;20447;-54
2022/06/22 09:24:38;;;;;;;0.40;0.30;;;;;;;26.73;43.49;99683.53;5005431;28;20533;-53
2022/06/22 09:27:24;;;;;;;0.40;0.23;;;;;;;26.91;43.70;99685.31;5034365;28;20866;-55
2022/06/22 09:30:10;;;;;;;0.40;0.20;;;;;;;26.68;43.80;99685.88;5034192;28;20551;-55
2022/06/22 09:33:15;;;;;;;0.40;0.27;;;;;;;27.15;42.47;99682.72;5032718;28;20496;-55
2022/06/22 09:36:08;;;;;;;0.40;0.20;;;;;;;27.26;43.52;99676.09;5033899;28;20472;-56
2022/06/22 09:38:47;;;;;;;0.40;0.20;;;;;;;27.10;42.71;99685.94;5034321;28;20479;-55
2022/06/22 09:41:26;;;;;;;0.43;0.20;;;;;;;26.98;42.94;99680.91;5021483;28;20989;-56
2022/06/22 09:44:30;;;;;;;0.40;0.23;;;;;;;27.42;43.21;99689.81;5034051;28;20456;-55
2022/06/22 09:47:14;;;;;;;0.40;0.27;;;;;;;26.96;43.64;99699.31;5033966;28;20863;-57
2022/06/22 09:49:43;;;;;;;0.40;0.20;;;;;;;26.78;43.42;99694.81;5033728;28;20970;-56
2022/06/22 09:52:27;;;;;;;0.40;0.20;;;;;;;27.39;43.30;99693.72;5065288;28;20898;-55
2022/06/22 09:58:20;;;;;;;0.40;0.23;;;;;;;27.57;39.44;99703.69;5024168;28;20451;-55
2022/06/22 10:01:18;;;;;;;0.40;0.30;;;;;;;27.06;41.54;99702.81;5033737;28;20509;-56
2022/06/22 10:04:12;;;;;;;0.40;0.30;;;;;;;27.38;39.99;99694.72;4996719;28;20964;-56
2022/06/22 10:06:51;;;;;;;0.40;0.30;;;;;;;27.38;39.32;99688.41;5033535;28;20502;-55
2022/06/22 10:09:57;;;;;;;0.40;0.30;;;;;;;27.95;39.32;99688.53;5033423;28;20518;-56
2022/06/22 10:12:38;;;;;;;0.40;0.20;;;;;;;27.58;39.48;99705.38;5032076;28;20520;-56
2022/06/22 10:15:26;;;;;;;0.43;0.27;;;;;;;27.18;38.29;99693.31;5033021;28;20996;-55
2022/06/22 10:18:05;;;;;;;0.40;0.30;;;;;;;27.63;39.02;99694.78;5033021;28;20828;-55
2022/06/22 10:20:48;;;;;;;0.40;0.30;;;;;;;27.33;38.28;99697.13;5033358;28;20435;-55
2022/06/22 10:23:58;;;;;;;0.40;0.20;;;;;;;27.43;38.29;99697.84;5033276;28;20497;-55
2022/06/22 10:26:31;;;;;;;4.13;1.23;;;;;;;28.05;38.48;99686.50;5008859;28;20471;-54
2022/06/22 10:29:22;;;;;;;0.40;0.30;;;;;;;27.63;38.08;99692.91;5032503;28;20452;-54
2022/06/22 10:31:54;;;;;;;0.40;0.20;;;;;;;27.91;38.94;99689.91;5033065;28;20444;-56
2022/06/22 10:34:33;;;;;;;0.40;0.30;;;;;;;27.82;36.99;99694.50;5032728;28;20448;-55
2022/06/22 10:37:23;;;;;;;0.50;0.40;;;;;;;28.10;37.56;99686.88;5033269;28;20447;-56
2022/06/22 10:40:11;;;;;;;0.40;0.30;;;;;;;27.97;37.81;99689.25;5021872;28;20882;-56
2022/06/22 10:45:56;;;;;;;0.40;0.30;;;;;;;27.72;38.07;99693.84;5032942;28;20533;-55
2022/06/22 10:48:51;;;;;;;0.40;0.20;;;;;;;28.00;38.22;99692.50;5031835;28;20422;-53
2022/06/22 10:51:54;;;;;;;0.40;0.30;;;;;;;28.10;38.53;99684.13;5033176;28;20455;-56
2022/06/22 10:55:15;;;;;;;0.40;0.30;;;;;;;28.11;38.30;99691.31;5008266;28;20447;-55
2022/06/22 10:58:03;;;;;;;0.40;0.20;;;;;;;27.81;38.31;99694.69;4961057;28;21070;-55
2022/06/22 11:00:48;;;;;;;0.40;0.30;;;;;;;28.33;38.82;99687.03;5029624;28;21075;-56
2022/06/22 11:03:36;;;;;;;0.40;0.20;;;;;;;28.46;36.98;99692.81;5032526;28;20451;-55
2022/06/22 11:06:36;;;;;;;0.40;0.20;;;;;;;28.61;36.80;99692.97;5032565;28;20476;-56
2022/06/22 11:09:31;;;;;;;0.40;0.30;;;;;;;28.17;37.77;99700.69;5021991;28;20933;-56
2022/06/22 11:12:12;;;;;;;0.50;0.30;;;;;;;28.50;37.06;99702.38;5019041;28;20443;-56
2022/06/22 11:14:45;;;;;;;0.40;0.20;;;;;;;28.80;34.96;99709.00;5032321;28;20561;-53
2022/06/22 11:17:53;;;;;;;0.63;0.60;;;;;;;28.48;34.29;99718.13;5032478;28;20455;-53
2022/06/22 11:20:33;;;;;;;0.40;0.30;;;;;;;28.84;34.95;99707.63;5021446;28;20423;-53
2022/06/22 11:23:08;;;;;;;0.40;0.30;;;;;;;28.74;35.05;99704.22;5032411;28;20501;-53
2022/06/22 11:32:29;;;;;;;0.40;0.23;;;;;;;29.13;34.88;99696.09;5005172;28;20505;-53
2022/06/22 11:35:21;;;;;;;0.50;0.30;;;;;;;29.26;32.66;99701.00;5030985;28;20487;-53
2022/06/22 11:38:20;;;;;;;0.40;0.20;;;;;;;28.98;34.07;99697.00;5031988;28;20452;-53
2022/06/22 11:41:26;;;;;;;0.40;0.30;;;;;;;28.55;34.88;99705.47;5024523;28;20484;-53
2022/06/22 11:44:13;;;;;;;0.50;0.40;;;;;;;28.81;35.47;99696.19;5036347;28;20446;-53
2022/06/22 11:46:45;;;;;;;0.40;0.30;;;;;;;28.37;36.03;99699.31;5036206;28;20448;-53
2022/06/22 11:49:21;;;;;;;0.40;0.30;;;;;;;28.92;35.06;99695.84;5035967;28;20418;-53
2022/06/22 11:52:26;;;;;;;0.40;0.30;;;;;;;28.72;35.48;99692.59;5067738;28;20495;-53
2022/06/22 11:55:17;;;;;;;0.40;0.20;;;;;;;29.11;34.31;99709.09;5036105;28;20455;-53
2022/06/22 11:58:05;;;;;;;0.40;0.30;;;;;;;29.35;34.78;99701.81;5026464;28;20471;-53
2022/06/22 12:01:05;;;;;;;0.40;0.30;;;;;;;29.63;34.35;99703.03;5036083;28;20493;-53
2022/06/22 12:03:53;;;;;;;0.40;0.30;;;;;;;29.66;34.83;99710.91;5035902;28;20423;-54
2022/06/22 12:06:28;;;;;;;0.40;0.30;;;;;;;29.06;33.96;99703.31;5035384;28;20461;-54
2022/06/22 12:09:16;;;;;;;0.40;0.30;;;;;;;28.99;33.47;99701.44;5035804;28;20446;-54
2022/06/22 12:11:52;;;;;;;0.40;0.30;;;;;;;28.52;33.53;99700.34;5033661;28;20497;-53
2022/06/22 12:17:44;;;;;;;0.40;0.30;;;;;;;28.98;32.78;99695.13;5035668;28;20501;-54
2022/06/22 12:20:19;;;;;;;0.40;0.30;;;;;;;28.80;33.00;99699.94;5023224;28;20501;-53
2022/06/22 12:23:00;;;;;;;0.40;0.30;;;;;;;29.10;33.12;99699.19;5035499;28;20437;-53
2022/06/22 12:25:50;;;;;;;0.40;0.30;;;;;;;29.30;33.10;99683.16;5035478;28;20507;-53
2022/06/22 12:28:29;;;;;;;0.40;0.30;;;;;;;29.46;32.63;99683.09;5023504;28;20429;-54
2022/06/22 12:31:09;;;;;;;0.40;0.30;;;;;;;29.30;32.74;99674.94;5035415;28;20451;-54
2022/06/22 12:33:55;;;;;;;0.40;0.30;;;;;;;29.35;33.34;99671.69;5035647;28;20453;-53
2022/06/22 12:36:42;;;;;;;0.40;0.30;;;;;;;29.09;32.98;99659.16;5023281;28;20438;-54
2022/06/22 12:39:11;;;;;;;0.40;0.30;;;;;;;28.97;33.36;99663.31;5035203;28;20447;-54
2022/06/22 12:41:56;;;;;;;0.40;0.20;;;;;;;29.36;33.35;99659.69;5035027;28;20426;-53
2022/06/22 12:44:34;;;;;;;0.40;0.30;;;;;;;29.61;33.52;99654.94;5035177;28;20414;-53
2022/06/22 12:47:28;;;;;;;0.40;0.30;;;;;;;29.45;33.63;99653.97;5035154;28;20584;-53
2022/06/22 12:50:30;;;;;;;0.40;0.30;;;;;;;29.18;33.50;99641.63;5035013;28;21003;-53
2022/06/22 12:53:13;;;;;;;0.40;0.30;;;;;;;29.62;33.55;99652.03;5014897;28;20484;-53
2022/06/22 12:55:46;;;;;;;1.93;1.60;;;;;;;29.38;34.06;99644.78;5034739;28;20521;-53